createdAt,value
2023-09-08T00:01:09.693Z,9.45
2023-09-08T00:03:38.575Z,9.45
2023-09-08T00:06:05.236Z,9.31
2023-09-08T00:08:32.078Z,9.78
2023-09-08T00:11:00.923Z,9.77
2023-09-08T00:13:27.453Z,9.42
2023-09-08T00:15:57.068Z,9.19
2023-09-08T00:18:23.972Z,9.50
2023-09-08T00:20:50.598Z,9.32
2023-09-08T00:23:17.436Z,9.06
2023-09-08T00:25:44.264Z,9.09
2023-09-08T00:28:10.918Z,9.10
2023-09-08T00:30:37.555Z,9.35
2023-09-08T00:33:06.578Z,9.44
2023-09-08T00:35:34.340Z,9.60
2023-09-08T00:38:05.369Z,9.71
2023-09-08T00:40:33.081Z,9.46
2023-09-08T00:42:59.804Z,10.31
2023-09-08T00:45:26.514Z,9.35
2023-09-08T00:47:53.405Z,9.76
2023-09-08T00:50:20.833Z,9.66
2023-09-08T00:52:47.464Z,9.55
2023-09-08T00:55:14.245Z,9.21
2023-09-08T00:57:40.825Z,9.22
2023-09-08T01:00:07.679Z,9.57
2023-09-08T01:02:35.252Z,9.96
2023-09-08T01:05:02.555Z,9.60
2023-09-08T01:07:31.312Z,10.10
2023-09-08T01:09:57.998Z,10.18
2023-09-08T01:12:24.846Z,10.35
2023-09-08T01:14:52.291Z,9.97
2023-09-08T01:17:18.895Z,10.36
2023-09-08T01:19:47.281Z,9.95
2023-09-08T01:22:14.309Z,10.11
2023-09-08T01:24:43.173Z,10.02
2023-09-08T01:27:12.322Z,10.07
2023-09-08T01:29:38.948Z,10.30
2023-09-08T01:32:08.114Z,10.24
2023-09-08T01:34:34.811Z,10.38
2023-09-08T01:37:01.751Z,10.29
2023-09-08T01:39:28.481Z,10.10
2023-09-08T01:41:56.362Z,10.35
2023-09-08T01:44:25.360Z,10.55
2023-09-08T01:46:52.199Z,10.34
2023-09-08T01:49:21.338Z,10.39
2023-09-08T01:51:47.986Z,10.97
2023-09-08T01:54:14.860Z,10.86
2023-09-08T01:56:43.850Z,10.50
2023-09-08T01:59:10.709Z,10.54
2023-09-08T02:01:37.343Z,10.29
2023-09-08T02:04:04.017Z,10.68
2023-09-08T02:06:30.908Z,10.39
2023-09-08T02:08:57.621Z,10.28
2023-09-08T02:11:24.364Z,10.24
2023-09-08T02:13:51.021Z,10.39
2023-09-08T02:16:17.928Z,10.01
2023-09-08T02:18:44.652Z,10.49
2023-09-08T02:21:11.493Z,10.40
2023-09-08T02:23:38.144Z,10.30
2023-09-08T02:26:05.002Z,10.33
2023-09-08T02:28:34.260Z,10.30
2023-09-08T02:31:01.128Z,10.37
2023-09-08T02:33:28.133Z,10.11
2023-09-08T02:35:54.812Z,10.45
2023-09-08T02:38:21.453Z,10.50
2023-09-08T02:43:39.253Z,11.07
2023-09-08T02:46:07.211Z,10.76
2023-09-08T02:48:34.349Z,10.93
2023-09-08T02:51:01.085Z,10.90
2023-09-08T02:53:27.879Z,10.68
2023-09-08T02:55:54.655Z,10.71
2023-09-08T02:58:21.546Z,10.56
2023-09-08T03:00:48.167Z,10.41
2023-09-08T03:03:15.039Z,10.34
2023-09-08T03:05:41.693Z,10.33
2023-09-08T03:08:08.579Z,10.16
2023-09-08T03:10:42.663Z,10.49
2023-09-08T03:13:09.261Z,10.69
2023-09-08T03:15:38.172Z,10.51
2023-09-08T03:18:04.877Z,10.16
2023-09-08T03:20:31.659Z,10.46
2023-09-08T03:22:59.992Z,10.16
2023-09-08T03:25:26.768Z,10.07
2023-09-08T03:27:53.415Z,10.72
2023-09-08T03:30:19.954Z,10.31
2023-09-08T03:32:47.130Z,10.62
2023-09-08T03:35:13.951Z,10.15
2023-09-08T03:37:41.395Z,10.19
2023-09-08T03:40:08.059Z,10.03
2023-09-08T03:42:37.130Z,10.25
2023-09-08T03:45:03.724Z,10.06
2023-09-08T03:47:32.810Z,10.33
2023-09-08T03:49:59.562Z,10.59
2023-09-08T03:52:26.435Z,10.21
2023-09-08T03:54:53.052Z,10.25
2023-09-08T03:57:19.934Z,10.65
2023-09-08T03:59:46.557Z,10.30
2023-09-08T04:02:15.800Z,10.58
2023-09-08T04:04:42.751Z,10.71
2023-09-08T04:07:09.496Z,10.74
2023-09-08T04:09:36.434Z,10.78
2023-09-08T04:12:03.229Z,10.68
2023-09-08T04:14:43.360Z,10.80
2023-09-08T04:17:29.925Z,10.35
2023-09-08T04:19:57.118Z,10.92
2023-09-08T04:22:26.150Z,10.82
2023-09-08T04:24:54.007Z,10.83
2023-09-08T04:27:21.789Z,10.94
2023-09-08T04:29:50.768Z,11.15
2023-09-08T04:32:18.701Z,11.06
2023-09-08T04:34:46.192Z,11.14
2023-09-08T04:37:13.806Z,11.23
2023-09-08T04:39:40.876Z,11.07
2023-09-08T04:42:08.566Z,11.11
2023-09-08T04:44:37.645Z,10.93
2023-09-08T04:47:04.661Z,11.55
2023-09-08T04:49:33.891Z,10.90
2023-09-08T04:52:08.025Z,11.09
2023-09-08T04:54:34.684Z,11.20
2023-09-08T04:57:12.258Z,11.13
2023-09-08T04:59:48.246Z,10.87
2023-09-08T05:02:18.221Z,11.23
2023-09-08T05:04:45.092Z,10.99
2023-09-08T05:07:11.692Z,11.32
2023-09-08T05:09:40.407Z,11.02
2023-09-08T05:12:07.279Z,11.64
2023-09-08T05:14:34.078Z,11.67
2023-09-08T05:17:01.005Z,12.01
2023-09-08T05:19:27.826Z,11.72
2023-09-08T05:24:36.379Z,11.25
2023-09-08T05:27:03.867Z,11.68
2023-09-08T05:29:30.471Z,11.60
2023-09-08T05:31:57.096Z,11.38
2023-09-08T05:34:26.152Z,11.42
2023-09-08T05:36:53.560Z,11.50
2023-09-08T05:39:20.323Z,11.72
2023-09-08T05:41:49.213Z,11.15
2023-09-08T05:44:15.991Z,11.21
2023-09-08T05:46:43.277Z,11.23
2023-09-08T05:49:10.661Z,11.37
2023-09-08T05:51:37.637Z,10.64
2023-09-08T05:54:05.368Z,10.95
2023-09-08T05:56:34.009Z,10.62
2023-09-08T05:59:00.808Z,10.85
2023-09-08T06:01:30.546Z,10.49
2023-09-08T06:03:57.666Z,10.92
2023-09-08T06:06:24.969Z,10.46
2023-09-08T06:08:53.909Z,11.25
2023-09-08T06:11:20.688Z,10.83
2023-09-08T06:13:47.288Z,10.73
2023-09-08T06:16:16.138Z,10.74
2023-09-08T06:18:44.940Z,10.26
2023-09-08T06:21:11.598Z,10.30
2023-09-08T06:23:38.342Z,10.16
2023-09-08T06:26:05.831Z,10.54
2023-09-08T06:28:32.444Z,10.28
2023-09-08T06:30:59.096Z,10.23
2023-09-08T06:33:30.507Z,10.29
2023-09-08T06:35:57.641Z,10.60
2023-09-08T06:38:26.052Z,10.70
2023-09-08T06:40:57.843Z,10.42
2023-09-08T06:43:24.622Z,10.74
2023-09-08T06:45:51.674Z,10.76
2023-09-08T06:48:18.471Z,11.48
2023-09-08T06:50:46.879Z,10.27
2023-09-08T06:53:13.652Z,10.29
2023-09-08T06:55:44.730Z,11.02
2023-09-08T06:58:11.841Z,10.27
2023-09-08T07:03:07.445Z,10.42
2023-09-08T07:05:35.646Z,10.06
2023-09-08T07:08:02.280Z,9.28
2023-09-08T07:10:29.191Z,9.18
2023-09-08T07:12:55.815Z,9.63
2023-09-08T07:15:22.751Z,9.73
2023-09-08T07:17:52.862Z,9.35
2023-09-08T07:20:21.661Z,9.15
2023-09-08T07:22:48.611Z,9.37
2023-09-08T07:25:15.292Z,9.21
2023-09-08T07:27:42.227Z,9.13
2023-09-08T07:30:09.853Z,9.84
2023-09-08T07:32:36.845Z,10.03
2023-09-08T07:35:03.996Z,9.88
2023-09-08T07:37:30.777Z,9.78
2023-09-08T07:39:58.666Z,9.68
2023-09-08T07:42:25.689Z,9.80
2023-09-08T07:47:32.642Z,11.00
2023-09-08T07:49:59.592Z,9.98
2023-09-08T07:52:26.222Z,10.02
2023-09-08T07:54:54.070Z,10.61
2023-09-08T07:57:27.830Z,10.65
2023-09-08T07:59:54.781Z,10.72
2023-09-08T08:02:22.408Z,10.76
2023-09-08T08:04:49.555Z,10.91
2023-09-08T08:07:16.816Z,10.74
2023-09-08T08:09:54.608Z,10.53
2023-09-08T08:12:21.203Z,10.87
2023-09-08T08:14:48.156Z,11.10
2023-09-08T08:17:14.903Z,11.11
2023-09-08T08:19:43.674Z,11.43
2023-09-08T08:22:10.193Z,11.06
2023-09-08T08:24:37.614Z,11.44
2023-09-08T08:27:04.266Z,11.20
2023-09-08T08:29:31.014Z,10.73
2023-09-08T08:31:57.955Z,10.70
2023-09-08T08:34:24.984Z,10.96
2023-09-08T08:36:51.911Z,11.04
2023-09-08T08:39:19.505Z,11.42
2023-09-08T08:41:46.373Z,11.34
2023-09-08T08:44:12.951Z,11.18
2023-09-08T08:46:40.350Z,11.43
2023-09-08T08:49:14.519Z,11.23
2023-09-08T08:51:41.230Z,12.04
2023-09-08T08:54:10.174Z,11.58
2023-09-08T08:56:36.786Z,11.05
2023-09-08T08:59:08.640Z,11.13
2023-09-08T09:01:35.572Z,11.61
2023-09-08T09:04:02.844Z,11.41
2023-09-08T09:06:29.778Z,11.30
2023-09-08T09:08:57.513Z,10.99
2023-09-08T09:11:25.070Z,11.17
2023-09-08T09:13:52.900Z,11.02
2023-09-08T09:16:19.879Z,11.30
2023-09-08T09:18:47.003Z,11.13
2023-09-08T09:21:15.399Z,11.79
2023-09-08T09:23:42.154Z,11.87
2023-09-08T09:26:09.231Z,11.80
2023-09-08T09:28:36.952Z,11.04
2023-09-08T09:31:03.913Z,11.55
2023-09-08T09:33:30.875Z,11.69
2023-09-08T09:35:58.541Z,12.19
2023-09-08T09:38:27.570Z,12.14
2023-09-08T09:40:56.849Z,11.88
2023-09-08T09:43:23.567Z,12.00
2023-09-08T09:45:50.660Z,12.21
2023-09-08T09:48:19.203Z,12.62
2023-09-08T09:50:46.086Z,11.60
2023-09-08T09:53:13.028Z,12.03
2023-09-08T09:55:40.524Z,12.37
2023-09-08T09:58:09.788Z,11.71
2023-09-08T10:00:36.701Z,11.53
2023-09-08T10:03:03.686Z,11.41
2023-09-08T10:05:32.260Z,11.75
2023-09-08T10:07:59.082Z,12.19
2023-09-08T10:10:25.692Z,11.51
2023-09-08T10:12:52.569Z,11.64
2023-09-08T10:15:21.249Z,11.52
2023-09-08T10:17:51.425Z,10.58
2023-09-08T10:20:20.144Z,10.81
2023-09-08T10:22:46.902Z,10.37
2023-09-08T10:25:14.330Z,9.90
2023-09-08T10:27:41.730Z,9.77
2023-09-08T10:30:08.530Z,10.52
2023-09-08T10:32:39.240Z,10.39
2023-09-08T10:37:34.335Z,9.53
2023-09-08T10:40:01.767Z,10.13
2023-09-08T10:42:38.000Z,10.13
2023-09-08T10:45:04.683Z,9.82
2023-09-08T10:47:31.269Z,10.20
2023-09-08T10:50:00.741Z,10.22
2023-09-08T10:52:28.237Z,10.73
2023-09-08T10:54:56.119Z,9.87
2023-09-08T10:57:23.566Z,10.19
2023-09-08T10:59:56.034Z,10.40
2023-09-08T11:02:29.925Z,10.06
2023-09-08T11:04:56.756Z,10.13
2023-09-08T11:07:31.860Z,10.19
2023-09-08T11:09:58.547Z,9.88
2023-09-08T11:12:25.136Z,9.70
2023-09-08T11:14:54.583Z,10.15
2023-09-08T11:17:24.164Z,9.68
2023-09-08T11:19:51.105Z,10.17
2023-09-08T11:22:18.688Z,9.92
2023-09-08T11:24:45.783Z,10.05
2023-09-08T11:27:12.510Z,9.96
2023-09-08T11:30:11.341Z,9.93
2023-09-08T11:32:39.464Z,9.63
2023-09-08T11:35:07.001Z,9.65
2023-09-08T11:37:33.786Z,9.73
2023-09-08T11:40:02.330Z,9.28
2023-09-08T11:42:30.274Z,9.27
2023-09-08T11:44:58.057Z,8.91
2023-09-08T11:47:29.919Z,9.18
2023-09-08T11:49:56.801Z,8.83
2023-09-08T11:52:23.945Z,8.94
2023-09-08T11:55:05.907Z,8.69
2023-09-08T11:57:35.197Z,8.43
2023-09-08T12:00:06.184Z,8.78
2023-09-08T12:02:42.681Z,8.68
2023-09-08T12:05:10.378Z,9.37
2023-09-08T12:07:39.758Z,8.50
2023-09-08T12:10:06.583Z,8.69
2023-09-08T12:12:33.879Z,8.51
2023-09-08T12:15:00.421Z,8.48
2023-09-08T12:17:27.399Z,8.62
2023-09-08T12:19:54.405Z,8.40
2023-09-08T12:22:21.115Z,8.59
2023-09-08T12:24:48.649Z,8.71
2023-09-08T12:27:15.516Z,8.43
2023-09-08T12:29:42.190Z,8.40
2023-09-08T12:32:10.744Z,8.13
2023-09-08T12:34:37.436Z,8.29
2023-09-08T12:37:04.210Z,8.44
2023-09-08T12:39:31.384Z,8.31
2023-09-08T12:42:00.314Z,8.34
2023-09-08T12:44:35.777Z,8.90
2023-09-08T12:47:03.443Z,7.81
2023-09-08T12:49:30.413Z,8.78
2023-09-08T12:51:57.284Z,8.05
2023-09-08T12:54:24.746Z,8.37
2023-09-08T12:56:51.452Z,9.08
2023-09-08T12:59:21.032Z,8.60
2023-09-08T13:01:48.922Z,8.64
2023-09-08T13:06:56.133Z,8.51
2023-09-08T13:09:25.773Z,8.59
2023-09-08T13:11:52.462Z,8.63
2023-09-08T13:14:23.559Z,8.87
2023-09-08T13:16:50.172Z,8.44
2023-09-08T13:19:17.134Z,8.79
2023-09-08T13:21:46.834Z,8.62
2023-09-08T13:24:20.940Z,8.81
2023-09-08T13:26:47.643Z,9.04
2023-09-08T13:29:15.644Z,8.60
2023-09-08T13:31:43.758Z,8.60
2023-09-08T13:34:10.658Z,8.71
2023-09-08T13:36:37.610Z,8.72
2023-09-08T13:39:06.838Z,9.07
2023-09-08T13:41:33.971Z,9.60
2023-09-08T13:44:03.066Z,8.98
2023-09-08T13:46:29.823Z,8.82
2023-09-08T13:48:59.139Z,9.19
2023-09-08T13:51:28.271Z,9.57
2023-09-08T13:53:57.841Z,9.24
2023-09-08T13:56:26.387Z,9.66
2023-09-08T13:58:57.178Z,9.28
2023-09-08T14:01:26.890Z,9.18
2023-09-08T14:04:03.171Z,9.03
2023-09-08T14:09:40.798Z,9.03
2023-09-08T14:14:41.073Z,9.04
2023-09-08T14:17:08.060Z,8.93
2023-09-08T14:19:35.782Z,8.48
2023-09-08T14:22:02.432Z,9.27
2023-09-08T14:24:29.118Z,8.49
2023-09-08T14:26:55.930Z,8.74
2023-09-08T14:29:22.890Z,9.29
2023-09-08T14:31:49.886Z,8.83
2023-09-08T14:34:16.620Z,8.67
2023-09-08T14:36:43.537Z,8.81
2023-09-08T14:39:12.578Z,8.65
2023-09-08T14:41:39.212Z,9.26
2023-09-08T14:44:06.151Z,8.96
2023-09-08T14:46:32.896Z,8.99
2023-09-08T14:48:59.509Z,8.84
2023-09-08T14:51:28.253Z,8.57
2023-09-08T14:53:54.974Z,8.56
2023-09-08T14:56:21.951Z,8.59
2023-09-08T14:58:52.397Z,8.61
2023-09-08T15:01:26.142Z,9.10
2023-09-08T15:03:54.523Z,8.81
2023-09-08T15:06:21.441Z,8.53
2023-09-08T15:08:48.509Z,7.81
2023-09-08T15:11:16.014Z,8.09
2023-09-08T15:13:43.935Z,8.31
2023-09-08T15:16:10.773Z,32.37
2023-09-08T15:18:37.753Z,37.47
2023-09-08T15:21:04.500Z,8.94
2023-09-08T15:23:31.195Z,7.97
2023-09-08T15:25:58.162Z,7.54
2023-09-08T15:28:25.259Z,7.79
2023-09-08T15:30:54.219Z,7.37
2023-09-08T15:33:21.477Z,7.35
2023-09-08T15:35:48.426Z,7.19
2023-09-08T15:38:28.215Z,8.25
2023-09-08T15:40:55.127Z,6.80
2023-09-08T15:43:22.602Z,6.88
2023-09-08T15:45:50.260Z,7.04
2023-09-08T15:48:26.069Z,7.27
2023-09-08T15:51:11.290Z,6.81
2023-09-08T15:53:38.515Z,6.76
2023-09-08T15:56:05.930Z,6.75
2023-09-08T15:58:35.252Z,6.85
2023-09-08T16:01:16.531Z,6.56
2023-09-08T16:03:45.754Z,6.15
2023-09-08T16:06:14.679Z,6.21
2023-09-08T16:08:41.606Z,6.75
2023-09-08T16:11:12.213Z,6.75
2023-09-08T16:13:41.358Z,6.39
2023-09-08T16:16:08.313Z,6.51
2023-09-08T16:18:35.863Z,6.61
2023-09-08T16:21:02.824Z,6.74
2023-09-08T16:23:29.704Z,6.28
2023-09-08T16:25:56.723Z,6.23
2023-09-08T16:31:14.236Z,6.66
2023-09-08T16:33:40.901Z,6.71
2023-09-08T16:36:08.794Z,6.07
2023-09-08T16:38:36.684Z,5.95
2023-09-08T16:41:03.671Z,6.21
2023-09-08T16:43:30.624Z,6.14
2023-09-08T16:45:59.884Z,6.28
2023-09-08T16:48:28.512Z,5.74
2023-09-08T16:51:02.531Z,6.24
2023-09-08T16:53:29.473Z,6.08
2023-09-08T16:55:56.173Z,5.77
2023-09-08T16:58:23.031Z,6.16
2023-09-08T17:00:49.830Z,6.06
2023-09-08T17:03:16.915Z,5.61
2023-09-08T17:05:46.054Z,5.93
2023-09-08T17:08:13.008Z,5.65
2023-09-08T17:10:44.832Z,5.74
2023-09-08T17:13:11.744Z,6.08
2023-09-08T17:15:38.575Z,5.98
2023-09-08T17:18:05.541Z,5.83
2023-09-08T17:20:36.330Z,6.04
2023-09-08T17:23:03.160Z,5.87
2023-09-08T17:25:29.666Z,5.71
2023-09-08T17:27:57.602Z,5.67
2023-09-08T17:30:24.391Z,6.29
2023-09-08T17:32:51.457Z,6.33
2023-09-08T17:35:18.403Z,6.55
2023-09-08T17:37:45.125Z,6.72
2023-09-08T17:40:12.010Z,6.27
2023-09-08T17:42:41.077Z,6.88
2023-09-08T17:45:07.891Z,6.81
2023-09-08T17:47:34.592Z,6.82
2023-09-08T17:50:01.126Z,7.00
2023-09-08T17:52:27.803Z,6.59
2023-09-08T17:54:55.733Z,7.21
2023-09-08T17:57:22.591Z,7.45
2023-09-08T17:59:51.216Z,7.74
2023-09-08T18:02:18.668Z,8.08
2023-09-08T18:04:45.407Z,9.98
2023-09-08T18:07:13.391Z,13.17
2023-09-08T18:09:40.101Z,10.75
2023-09-08T18:12:06.778Z,12.32
2023-09-08T18:14:33.564Z,13.14
2023-09-08T18:17:00.172Z,13.22
2023-09-08T18:19:27.110Z,11.25
2023-09-08T18:21:53.919Z,11.97
2023-09-08T18:24:23.876Z,12.11
2023-09-08T18:26:50.810Z,11.32
2023-09-08T18:29:17.770Z,11.67
2023-09-08T18:31:44.658Z,12.59
2023-09-08T18:34:11.765Z,12.12
2023-09-08T18:36:38.389Z,12.23
2023-09-08T18:39:07.670Z,12.96
2023-09-08T18:41:35.180Z,11.89
2023-09-08T18:44:02.008Z,11.35
2023-09-08T18:46:28.994Z,12.00
2023-09-08T18:48:57.813Z,11.40
2023-09-08T18:51:25.634Z,11.44
2023-09-08T18:53:52.495Z,12.25
2023-09-08T18:56:19.376Z,12.52
2023-09-08T18:58:46.231Z,11.43
2023-09-08T19:01:15.151Z,10.58
2023-09-08T19:03:42.144Z,10.03
2023-09-08T19:06:08.732Z,9.66
2023-09-08T19:08:38.897Z,30.24
2023-09-08T19:11:05.837Z,145.21
2023-09-08T19:13:34.751Z,102.99
2023-09-08T19:16:22.687Z,33.48
2023-09-08T19:18:49.339Z,10.21
2023-09-08T19:21:18.142Z,8.73
2023-09-08T19:23:44.991Z,8.71
2023-09-08T19:26:13.569Z,9.08
2023-09-08T19:28:40.638Z,9.23
2023-09-08T19:31:07.543Z,9.27
2023-09-08T19:33:34.234Z,8.95
2023-09-08T19:36:02.144Z,9.50
2023-09-08T19:38:31.101Z,9.95
2023-09-08T19:40:59.816Z,9.71
2023-09-08T19:43:27.353Z,8.93
2023-09-08T19:45:53.937Z,8.65
2023-09-08T19:48:20.972Z,7.77
2023-09-08T19:50:47.887Z,7.45
2023-09-08T19:53:14.560Z,7.74
2023-09-08T19:55:41.444Z,7.48
2023-09-08T19:58:09.342Z,8.06
2023-09-08T20:00:38.029Z,8.38
2023-09-08T20:03:07.603Z,8.66
2023-09-08T20:05:34.348Z,9.33
2023-09-08T20:08:01.003Z,9.53
2023-09-08T20:10:27.717Z,9.89
2023-09-08T20:13:01.620Z,9.77
2023-09-08T20:15:31.511Z,9.33
2023-09-08T20:18:00.609Z,9.03
2023-09-08T20:20:27.204Z,8.95
2023-09-08T20:22:56.283Z,9.96
2023-09-08T20:25:23.977Z,11.11
2023-09-08T20:27:52.821Z,10.37
2023-09-08T20:30:19.695Z,9.93
2023-09-08T20:32:46.520Z,9.30
2023-09-08T20:35:13.975Z,9.75
2023-09-08T20:37:40.622Z,9.12
2023-09-08T20:40:07.435Z,9.15
2023-09-08T20:42:34.211Z,9.36
2023-09-08T20:45:01.104Z,9.11
2023-09-08T20:47:28.261Z,9.50
2023-09-08T20:49:57.923Z,8.93
2023-09-08T20:52:27.797Z,8.92
2023-09-08T20:54:54.662Z,8.36
2023-09-08T20:57:21.312Z,8.48
2023-09-08T20:59:47.958Z,8.68
2023-09-08T21:02:16.738Z,8.74
2023-09-08T21:04:46.745Z,8.87
2023-09-08T21:07:13.634Z,9.45
2023-09-08T21:09:40.594Z,8.96
2023-09-08T21:12:07.249Z,8.95
2023-09-08T21:14:35.959Z,9.09
2023-09-08T21:17:02.904Z,9.83
2023-09-08T21:19:29.507Z,9.02
2023-09-08T21:21:56.558Z,9.37
2023-09-08T21:24:23.421Z,9.49
2023-09-08T21:26:51.095Z,9.74
2023-09-08T21:29:18.221Z,9.68
2023-09-08T21:31:45.973Z,10.69
2023-09-08T21:34:12.951Z,9.69
2023-09-08T21:36:40.378Z,9.92
2023-09-08T21:39:07.424Z,10.18
2023-09-08T21:41:34.515Z,9.39
2023-09-08T21:44:01.336Z,9.40
2023-09-08T21:46:28.747Z,10.16
2023-09-08T21:48:58.650Z,10.00
2023-09-08T21:51:26.338Z,9.54
2023-09-08T21:53:53.344Z,9.73
2023-09-08T21:56:20.280Z,10.09
2023-09-08T21:58:47.588Z,9.40
2023-09-08T22:01:14.521Z,10.13
2023-09-08T22:03:49.133Z,10.13
2023-09-08T22:06:16.091Z,10.11
2023-09-08T22:08:42.990Z,10.33
2023-09-08T22:11:09.658Z,9.98
2023-09-08T22:13:37.733Z,10.17
2023-09-08T22:16:05.033Z,9.72
2023-09-08T22:18:31.859Z,9.96
2023-09-08T22:20:58.940Z,9.80
2023-09-08T22:23:25.645Z,9.63
2023-09-08T22:25:54.120Z,9.74
2023-09-08T22:28:28.282Z,10.12
2023-09-08T22:30:55.212Z,9.93
2023-09-08T22:33:22.334Z,9.95
2023-09-08T22:35:50.551Z,10.01
2023-09-08T22:38:18.694Z,10.31
2023-09-08T22:40:52.768Z,10.15
2023-09-08T22:43:19.793Z,10.27
2023-09-08T22:45:46.905Z,10.23
2023-09-08T22:48:13.707Z,10.52
2023-09-08T22:50:40.444Z,10.13
2023-09-08T22:53:10.094Z,9.93
2023-09-08T22:55:37.131Z,10.14
2023-09-08T22:58:04.666Z,10.21
2023-09-08T23:00:31.918Z,10.40
2023-09-08T23:02:59.697Z,10.28
2023-09-08T23:05:26.805Z,9.39
2023-09-08T23:07:53.746Z,9.20
2023-09-08T23:10:27.765Z,8.92
2023-09-08T23:12:54.710Z,8.91
2023-09-08T23:15:22.737Z,8.79
2023-09-08T23:17:55.564Z,9.22
2023-09-08T23:20:24.070Z,8.95
2023-09-08T23:22:52.575Z,8.85
2023-09-08T23:28:00.749Z,8.63
2023-09-08T23:30:28.348Z,8.64
2023-09-08T23:33:08.757Z,8.92
2023-09-08T23:35:35.579Z,8.99
2023-09-08T23:38:04.253Z,9.11
2023-09-08T23:40:34.887Z,9.01
2023-09-08T23:43:02.346Z,9.07
2023-09-08T23:45:29.764Z,8.93
2023-09-08T23:48:02.193Z,9.49
2023-09-08T23:50:29.506Z,9.33
2023-09-08T23:52:56.113Z,9.58
2023-09-08T23:55:25.330Z,9.77
2023-09-08T23:57:52.548Z,9.59
